sensor_id;sensor_type;location;lat;lon;timestamp;P1;durP1;ratioP1;P2;durP2;ratioP2
54947;SDS011;41113;41.882;12.530;2022-12-10T00:02:25;39.13;;;7.55;;
54947;SDS011;41113;41.882;12.530;2022-12-10T00:04:51;32.35;;;8.02;;
54947;SDS011;41113;41.882;12.530;2022-12-10T00:07:16;32.60;;;7.07;;
54947;SDS011;41113;41.882;12.530;2022-12-10T00:09:41;47.88;;;8.85;;
54947;SDS011;41113;41.882;12.530;2022-12-10T00:12:07;34.85;;;7.25;;
54947;SDS011;41113;41.882;12.530;2022-12-10T00:14:32;37.25;;;7.10;;
54947;SDS011;41113;41.882;12.530;2022-12-10T00:16:58;27.83;;;6.65;;
54947;SDS011;41113;41.882;12.530;2022-12-10T00:19:23;38.75;;;7.80;;
54947;SDS011;41113;41.882;12.530;2022-12-10T00:21:48;36.10;;;7.20;;
54947;SDS011;41113;41.882;12.530;2022-12-10T00:24:14;38.88;;;7.18;;
54947;SDS011;41113;41.882;12.530;2022-12-10T00:26:39;36.47;;;7.18;;
54947;SDS011;41113;41.882;12.530;2022-12-10T00:29:05;36.95;;;7.07;;
54947;SDS011;41113;41.882;12.530;2022-12-10T00:31:33;35.20;;;6.93;;
54947;SDS011;41113;41.882;12.530;2022-12-10T00:34:01;31.10;;;5.57;;
54947;SDS011;41113;41.882;12.530;2022-12-10T00:36:29;38.97;;;8.90;;
54947;SDS011;41113;41.882;12.530;2022-12-10T00:38:56;38.88;;;7.13;;
54947;SDS011;41113;41.882;12.530;2022-12-10T00:41:22;39.40;;;7.20;;
54947;SDS011;41113;41.882;12.530;2022-12-10T00:43:48;36.10;;;6.95;;
54947;SDS011;41113;41.882;12.530;2022-12-10T00:46:14;36.67;;;6.63;;
54947;SDS011;41113;41.882;12.530;2022-12-10T00:48:41;44.00;;;7.65;;
54947;SDS011;41113;41.882;12.530;2022-12-10T00:51:08;39.15;;;7.70;;
54947;SDS011;41113;41.882;12.530;2022-12-10T00:53:36;43.40;;;8.35;;
54947;SDS011;41113;41.882;12.530;2022-12-10T00:56:03;38.00;;;6.68;;
54947;SDS011;41113;41.882;12.530;2022-12-10T00:58:29;45.42;;;9.27;;
54947;SDS011;41113;41.882;12.530;2022-12-10T01:03:36;38.20;;;7.75;;
54947;SDS011;41113;41.882;12.530;2022-12-10T01:06:36;37.50;;;7.50;;
54947;SDS011;41113;41.882;12.530;2022-12-10T01:08:56;40.05;;;7.78;;
54947;SDS011;41113;41.882;12.530;2022-12-10T01:11:26;42.45;;;9.02;;
54947;SDS011;41113;41.882;12.530;2022-12-10T01:13:54;37.75;;;8.05;;
54947;SDS011;41113;41.882;12.530;2022-12-10T01:16:20;41.47;;;7.78;;
54947;SDS011;41113;41.882;12.530;2022-12-10T01:18:49;48.90;;;10.02;;
54947;SDS011;41113;41.882;12.530;2022-12-10T01:21:18;51.90;;;9.18;;
54947;SDS011;41113;41.882;12.530;2022-12-10T01:23:44;38.88;;;8.00;;
54947;SDS011;41113;41.882;12.530;2022-12-10T01:26:14;44.28;;;8.80;;
54947;SDS011;41113;41.882;12.530;2022-12-10T01:28:42;41.28;;;9.55;;
54947;SDS011;41113;41.882;12.530;2022-12-10T01:31:15;45.03;;;8.85;;
54947;SDS011;41113;41.882;12.530;2022-12-10T01:33:49;53.60;;;10.10;;
54947;SDS011;41113;41.882;12.530;2022-12-10T01:36:16;38.08;;;7.07;;
54947;SDS011;41113;41.882;12.530;2022-12-10T01:38:43;47.90;;;9.32;;
54947;SDS011;41113;41.882;12.530;2022-12-10T01:41:16;42.33;;;7.90;;
54947;SDS011;41113;41.882;12.530;2022-12-10T01:46:38;47.08;;;8.18;;
54947;SDS011;41113;41.882;12.530;2022-12-10T01:49:10;39.60;;;8.00;;
54947;SDS011;41113;41.882;12.530;2022-12-10T01:51:38;49.15;;;9.63;;
54947;SDS011;41113;41.882;12.530;2022-12-10T01:54:09;47.22;;;8.35;;
54947;SDS011;41113;41.882;12.530;2022-12-10T01:56:38;59.67;;;9.65;;
54947;SDS011;41113;41.882;12.530;2022-12-10T01:59:06;53.17;;;8.85;;
54947;SDS011;41113;41.882;12.530;2022-12-10T02:06:54;39.17;;;7.20;;
54947;SDS011;41113;41.882;12.530;2022-12-10T02:12:01;40.20;;;8.00;;
54947;SDS011;41113;41.882;12.530;2022-12-10T02:14:37;41.53;;;8.23;;
54947;SDS011;41113;41.882;12.530;2022-12-10T02:17:19;45.63;;;8.82;;
54947;SDS011;41113;41.882;12.530;2022-12-10T02:22:20;40.67;;;8.75;;
54947;SDS011;41113;41.882;12.530;2022-12-10T02:24:49;42.97;;;8.20;;
54947;SDS011;41113;41.882;12.530;2022-12-10T02:27:20;52.38;;;10.73;;
54947;SDS011;41113;41.882;12.530;2022-12-10T02:30:05;43.45;;;8.63;;
54947;SDS011;41113;41.882;12.530;2022-12-10T02:32:38;43.20;;;8.88;;
54947;SDS011;41113;41.882;12.530;2022-12-10T02:35:09;36.83;;;7.35;;
54947;SDS011;41113;41.882;12.530;2022-12-10T02:37:40;45.13;;;9.15;;
54947;SDS011;41113;41.882;12.530;2022-12-10T02:40:13;49.03;;;9.77;;
54947;SDS011;41113;41.882;12.530;2022-12-10T02:42:47;54.90;;;10.05;;
54947;SDS011;41113;41.882;12.530;2022-12-10T02:45:15;42.83;;;9.23;;
54947;SDS011;41113;41.882;12.530;2022-12-10T02:47:43;51.08;;;10.38;;
54947;SDS011;41113;41.882;12.530;2022-12-10T02:50:09;54.78;;;12.60;;
54947;SDS011;41113;41.882;12.530;2022-12-10T02:52:37;63.50;;;11.93;;
54947;SDS011;41113;41.882;12.530;2022-12-10T02:55:03;57.65;;;12.10;;
54947;SDS011;41113;41.882;12.530;2022-12-10T03:00:08;46.45;;;9.75;;
54947;SDS011;41113;41.882;12.530;2022-12-10T03:07:55;60.58;;;11.65;;
54947;SDS011;41113;41.882;12.530;2022-12-10T03:10:34;58.25;;;10.77;;
54947;SDS011;41113;41.882;12.530;2022-12-10T03:13:15;56.17;;;11.63;;
54947;SDS011;41113;41.882;12.530;2022-12-10T03:15:42;69.07;;;11.15;;
54947;SDS011;41113;41.882;12.530;2022-12-10T03:18:11;52.50;;;11.52;;
54947;SDS011;41113;41.882;12.530;2022-12-10T03:20:42;55.93;;;10.80;;
54947;SDS011;41113;41.882;12.530;2022-12-10T03:23:10;57.30;;;11.60;;
54947;SDS011;41113;41.882;12.530;2022-12-10T03:25:39;58.97;;;9.95;;
54947;SDS011;41113;41.882;12.530;2022-12-10T03:28:05;66.80;;;11.48;;
54947;SDS011;41113;41.882;12.530;2022-12-10T03:30:32;53.63;;;9.25;;
54947;SDS011;41113;41.882;12.530;2022-12-10T03:33:00;52.63;;;11.47;;
54947;SDS011;41113;41.882;12.530;2022-12-10T03:35:27;66.28;;;11.02;;
54947;SDS011;41113;41.882;12.530;2022-12-10T03:37:53;63.08;;;11.70;;
54947;SDS011;41113;41.882;12.530;2022-12-10T03:40:20;57.80;;;10.80;;
54947;SDS011;41113;41.882;12.530;2022-12-10T03:45:13;51.13;;;10.43;;
54947;SDS011;41113;41.882;12.530;2022-12-10T03:47:40;50.38;;;10.23;;
54947;SDS011;41113;41.882;12.530;2022-12-10T03:50:06;53.85;;;10.75;;
54947;SDS011;41113;41.882;12.530;2022-12-10T03:52:32;52.03;;;11.90;;
54947;SDS011;41113;41.882;12.530;2022-12-10T03:54:57;54.78;;;10.57;;
54947;SDS011;41113;41.882;12.530;2022-12-10T03:57:23;43.95;;;9.50;;
54947;SDS011;41113;41.882;12.530;2022-12-10T03:59:48;53.85;;;11.23;;
54947;SDS011;41113;41.882;12.530;2022-12-10T04:02:13;52.85;;;11.88;;
54947;SDS011;41113;41.882;12.530;2022-12-10T04:04:39;56.63;;;10.32;;
54947;SDS011;41113;41.882;12.530;2022-12-10T04:07:04;51.70;;;10.70;;
54947;SDS011;41113;41.882;12.530;2022-12-10T04:09:30;47.03;;;9.55;;
54947;SDS011;41113;41.882;12.530;2022-12-10T04:11:58;50.35;;;9.55;;
54947;SDS011;41113;41.882;12.530;2022-12-10T04:14:25;52.13;;;9.20;;
54947;SDS011;41113;41.882;12.530;2022-12-10T04:17:10;50.97;;;11.15;;
54947;SDS011;41113;41.882;12.530;2022-12-10T04:19:35;49.25;;;9.43;;
54947;SDS011;41113;41.882;12.530;2022-12-10T04:22:01;48.80;;;9.32;;
54947;SDS011;41113;41.882;12.530;2022-12-10T04:24:45;56.63;;;10.90;;
54947;SDS011;41113;41.882;12.530;2022-12-10T04:27:30;55.65;;;10.20;;
54947;SDS011;41113;41.882;12.530;2022-12-10T04:29:58;54.92;;;10.73;;
54947;SDS011;41113;41.882;12.530;2022-12-10T04:32:25;50.55;;;10.80;;
54947;SDS011;41113;41.882;12.530;2022-12-10T04:34:52;59.97;;;11.40;;
54947;SDS011;41113;41.882;12.530;2022-12-10T04:37:17;42.72;;;8.90;;
54947;SDS011;41113;41.882;12.530;2022-12-10T04:39:43;62.35;;;11.80;;
54947;SDS011;41113;41.882;12.530;2022-12-10T04:42:09;53.88;;;9.38;;
54947;SDS011;41113;41.882;12.530;2022-12-10T04:44:34;46.05;;;10.00;;
54947;SDS011;41113;41.882;12.530;2022-12-10T04:47:00;54.03;;;10.15;;
54947;SDS011;41113;41.882;12.530;2022-12-10T04:49:26;45.80;;;8.95;;
54947;SDS011;41113;41.882;12.530;2022-12-10T04:51:51;69.72;;;13.40;;
54947;SDS011;41113;41.882;12.530;2022-12-10T04:54:18;53.10;;;10.93;;
54947;SDS011;41113;41.882;12.530;2022-12-10T04:56:44;67.75;;;12.57;;
54947;SDS011;41113;41.882;12.530;2022-12-10T04:59:10;51.03;;;10.35;;
54947;SDS011;41113;41.882;12.530;2022-12-10T05:01:35;50.80;;;10.77;;
54947;SDS011;41113;41.882;12.530;2022-12-10T05:04:02;56.72;;;10.82;;
54947;SDS011;41113;41.882;12.530;2022-12-10T05:06:29;49.97;;;11.02;;
54947;SDS011;41113;41.882;12.530;2022-12-10T05:08:55;53.45;;;10.52;;
54947;SDS011;41113;41.882;12.530;2022-12-10T05:11:24;62.85;;;9.85;;
54947;SDS011;41113;41.882;12.530;2022-12-10T05:13:52;62.50;;;12.95;;
54947;SDS011;41113;41.882;12.530;2022-12-10T05:16:18;49.40;;;10.00;;
54947;SDS011;41113;41.882;12.530;2022-12-10T05:18:45;50.78;;;9.57;;
54947;SDS011;41113;41.882;12.530;2022-12-10T05:21:11;56.55;;;12.23;;
54947;SDS011;41113;41.882;12.530;2022-12-10T05:23:39;66.95;;;12.80;;
54947;SDS011;41113;41.882;12.530;2022-12-10T05:28:44;54.72;;;12.43;;
54947;SDS011;41113;41.882;12.530;2022-12-10T05:31:27;49.00;;;10.13;;
54947;SDS011;41113;41.882;12.530;2022-12-10T05:33:54;54.45;;;10.15;;
54947;SDS011;41113;41.882;12.530;2022-12-10T05:36:21;48.63;;;10.30;;
54947;SDS011;41113;41.882;12.530;2022-12-10T05:38:48;66.72;;;11.55;;
54947;SDS011;41113;41.882;12.530;2022-12-10T05:41:16;49.33;;;11.02;;
54947;SDS011;41113;41.882;12.530;2022-12-10T05:43:45;52.17;;;10.18;;
54947;SDS011;41113;41.882;12.530;2022-12-10T05:46:13;51.08;;;10.43;;
54947;SDS011;41113;41.882;12.530;2022-12-10T05:48:40;41.05;;;10.38;;
54947;SDS011;41113;41.882;12.530;2022-12-10T05:51:09;53.85;;;10.10;;
54947;SDS011;41113;41.882;12.530;2022-12-10T05:53:36;52.95;;;9.52;;
54947;SDS011;41113;41.882;12.530;2022-12-10T05:56:04;47.05;;;10.05;;
54947;SDS011;41113;41.882;12.530;2022-12-10T05:58:31;59.70;;;11.40;;
54947;SDS011;41113;41.882;12.530;2022-12-10T06:00:56;63.08;;;11.57;;
54947;SDS011;41113;41.882;12.530;2022-12-10T06:03:23;53.25;;;11.02;;
54947;SDS011;41113;41.882;12.530;2022-12-10T06:05:49;52.47;;;10.45;;
54947;SDS011;41113;41.882;12.530;2022-12-10T06:08:15;46.13;;;9.52;;
54947;SDS011;41113;41.882;12.530;2022-12-10T06:10:40;39.60;;;8.55;;
54947;SDS011;41113;41.882;12.530;2022-12-10T06:13:06;51.00;;;10.10;;
54947;SDS011;41113;41.882;12.530;2022-12-10T06:15:31;54.97;;;10.00;;
54947;SDS011;41113;41.882;12.530;2022-12-10T06:17:57;51.00;;;9.75;;
54947;SDS011;41113;41.882;12.530;2022-12-10T06:20:23;53.38;;;10.95;;
54947;SDS011;41113;41.882;12.530;2022-12-10T06:22:50;47.10;;;10.65;;
54947;SDS011;41113;41.882;12.530;2022-12-10T06:25:16;48.47;;;10.43;;
54947;SDS011;41113;41.882;12.530;2022-12-10T06:27:42;48.17;;;9.90;;
54947;SDS011;41113;41.882;12.530;2022-12-10T06:30:07;54.13;;;9.95;;
54947;SDS011;41113;41.882;12.530;2022-12-10T06:32:33;59.80;;;11.10;;
54947;SDS011;41113;41.882;12.530;2022-12-10T06:34:59;47.38;;;11.25;;
54947;SDS011;41113;41.882;12.530;2022-12-10T06:37:24;45.95;;;10.13;;
54947;SDS011;41113;41.882;12.530;2022-12-10T06:39:50;49.05;;;9.73;;
54947;SDS011;41113;41.882;12.530;2022-12-10T06:42:17;40.95;;;8.63;;
54947;SDS011;41113;41.882;12.530;2022-12-10T06:44:42;40.92;;;10.07;;
54947;SDS011;41113;41.882;12.530;2022-12-10T06:47:08;50.28;;;9.88;;
54947;SDS011;41113;41.882;12.530;2022-12-10T06:49:33;47.03;;;7.90;;
54947;SDS011;41113;41.882;12.530;2022-12-10T06:51:58;45.63;;;9.38;;
54947;SDS011;41113;41.882;12.530;2022-12-10T06:54:24;38.72;;;10.27;;
54947;SDS011;41113;41.882;12.530;2022-12-10T06:56:50;49.58;;;9.73;;
54947;SDS011;41113;41.882;12.530;2022-12-10T06:59:15;48.65;;;7.88;;
54947;SDS011;41113;41.882;12.530;2022-12-10T07:01:40;47.20;;;9.18;;
54947;SDS011;41113;41.882;12.530;2022-12-10T07:04:06;53.50;;;11.23;;
54947;SDS011;41113;41.882;12.530;2022-12-10T07:06:32;50.22;;;10.02;;
54947;SDS011;41113;41.882;12.530;2022-12-10T07:08:58;47.70;;;9.98;;
54947;SDS011;41113;41.882;12.530;2022-12-10T07:11:24;47.72;;;9.70;;
54947;SDS011;41113;41.882;12.530;2022-12-10T07:13:50;50.30;;;10.00;;
54947;SDS011;41113;41.882;12.530;2022-12-10T07:16:20;42.10;;;9.07;;
54947;SDS011;41113;41.882;12.530;2022-12-10T07:18:48;56.10;;;11.20;;
54947;SDS011;41113;41.882;12.530;2022-12-10T07:21:18;39.05;;;9.25;;
54947;SDS011;41113;41.882;12.530;2022-12-10T07:23:46;56.83;;;10.38;;
54947;SDS011;41113;41.882;12.530;2022-12-10T07:26:12;42.00;;;9.55;;
54947;SDS011;41113;41.882;12.530;2022-12-10T07:28:37;52.60;;;9.98;;
54947;SDS011;41113;41.882;12.530;2022-12-10T07:31:04;39.08;;;8.85;;
54947;SDS011;41113;41.882;12.530;2022-12-10T07:33:30;41.95;;;7.97;;
54947;SDS011;41113;41.882;12.530;2022-12-10T07:35:56;48.28;;;9.25;;
54947;SDS011;41113;41.882;12.530;2022-12-10T07:38:22;38.33;;;9.35;;
54947;SDS011;41113;41.882;12.530;2022-12-10T07:40:51;36.50;;;7.88;;
54947;SDS011;41113;41.882;12.530;2022-12-10T07:43:16;39.38;;;9.93;;
54947;SDS011;41113;41.882;12.530;2022-12-10T07:45:42;54.00;;;10.35;;
54947;SDS011;41113;41.882;12.530;2022-12-10T07:48:08;49.83;;;9.90;;
54947;SDS011;41113;41.882;12.530;2022-12-10T07:50:34;40.80;;;9.45;;
54947;SDS011;41113;41.882;12.530;2022-12-10T07:52:59;39.80;;;8.60;;
54947;SDS011;41113;41.882;12.530;2022-12-10T07:55:25;39.35;;;8.52;;
54947;SDS011;41113;41.882;12.530;2022-12-10T07:57:50;45.97;;;9.50;;
54947;SDS011;41113;41.882;12.530;2022-12-10T08:00:16;33.78;;;7.80;;
54947;SDS011;41113;41.882;12.530;2022-12-10T08:02:42;36.63;;;8.15;;
54947;SDS011;41113;41.882;12.530;2022-12-10T08:05:07;43.35;;;8.45;;
54947;SDS011;41113;41.882;12.530;2022-12-10T08:07:33;45.08;;;9.15;;
54947;SDS011;41113;41.882;12.530;2022-12-10T08:09:59;34.25;;;7.53;;
54947;SDS011;41113;41.882;12.530;2022-12-10T08:12:24;38.63;;;8.00;;
54947;SDS011;41113;41.882;12.530;2022-12-10T08:14:49;31.55;;;7.45;;
54947;SDS011;41113;41.882;12.530;2022-12-10T08:17:15;34.50;;;7.10;;
54947;SDS011;41113;41.882;12.530;2022-12-10T08:19:40;37.05;;;8.77;;
54947;SDS011;41113;41.882;12.530;2022-12-10T08:22:06;38.20;;;8.23;;
54947;SDS011;41113;41.882;12.530;2022-12-10T08:24:31;37.40;;;7.15;;
54947;SDS011;41113;41.882;12.530;2022-12-10T08:26:56;30.33;;;7.57;;
54947;SDS011;41113;41.882;12.530;2022-12-10T08:29:22;37.47;;;8.52;;
54947;SDS011;41113;41.882;12.530;2022-12-10T08:31:47;43.70;;;9.52;;
54947;SDS011;41113;41.882;12.530;2022-12-10T08:34:14;39.30;;;7.65;;
54947;SDS011;41113;41.882;12.530;2022-12-10T08:36:42;43.03;;;7.85;;
54947;SDS011;41113;41.882;12.530;2022-12-10T08:39:08;35.88;;;7.95;;
54947;SDS011;41113;41.882;12.530;2022-12-10T08:41:35;42.08;;;8.27;;
54947;SDS011;41113;41.882;12.530;2022-12-10T08:44:01;37.78;;;9.10;;
54947;SDS011;41113;41.882;12.530;2022-12-10T08:46:27;42.25;;;8.98;;
54947;SDS011;41113;41.882;12.530;2022-12-10T08:48:53;46.42;;;8.88;;
54947;SDS011;41113;41.882;12.530;2022-12-10T08:51:20;36.38;;;8.05;;
54947;SDS011;41113;41.882;12.530;2022-12-10T08:53:45;30.02;;;6.75;;
54947;SDS011;41113;41.882;12.530;2022-12-10T08:56:11;31.05;;;7.38;;
54947;SDS011;41113;41.882;12.530;2022-12-10T08:58:37;30.08;;;7.70;;
54947;SDS011;41113;41.882;12.530;2022-12-10T09:01:07;22.40;;;5.65;;
54947;SDS011;41113;41.882;12.530;2022-12-10T09:03:34;29.55;;;7.30;;
54947;SDS011;41113;41.882;12.530;2022-12-10T09:06:01;35.75;;;8.15;;
54947;SDS011;41113;41.882;12.530;2022-12-10T09:08:28;36.95;;;8.40;;
54947;SDS011;41113;41.882;12.530;2022-12-10T09:10:53;35.38;;;8.27;;
54947;SDS011;41113;41.882;12.530;2022-12-10T09:13:19;39.63;;;7.05;;
54947;SDS011;41113;41.882;12.530;2022-12-10T09:15:51;39.53;;;8.07;;
54947;SDS011;41113;41.882;12.530;2022-12-10T09:18:17;36.88;;;8.23;;
54947;SDS011;41113;41.882;12.530;2022-12-10T09:20:42;41.20;;;7.38;;
54947;SDS011;41113;41.882;12.530;2022-12-10T09:23:08;35.15;;;7.72;;
54947;SDS011;41113;41.882;12.530;2022-12-10T09:25:33;32.80;;;7.78;;
54947;SDS011;41113;41.882;12.530;2022-12-10T09:27:59;32.47;;;6.68;;
54947;SDS011;41113;41.882;12.530;2022-12-10T09:30:24;28.73;;;6.57;;
54947;SDS011;41113;41.882;12.530;2022-12-10T09:32:49;28.98;;;7.43;;
54947;SDS011;41113;41.882;12.530;2022-12-10T09:35:15;35.45;;;7.57;;
54947;SDS011;41113;41.882;12.530;2022-12-10T09:37:40;28.52;;;5.78;;
54947;SDS011;41113;41.882;12.530;2022-12-10T09:40:06;26.95;;;6.03;;
54947;SDS011;41113;41.882;12.530;2022-12-10T09:43:36;35.25;;;6.97;;
54947;SDS011;41113;41.882;12.530;2022-12-10T09:45:52;27.23;;;7.45;;
54947;SDS011;41113;41.882;12.530;2022-12-10T09:51:17;26.48;;;6.30;;
54947;SDS011;41113;41.882;12.530;2022-12-10T09:53:47;28.27;;;7.35;;
54947;SDS011;41113;41.882;12.530;2022-12-10T09:56:21;25.63;;;6.47;;
54947;SDS011;41113;41.882;12.530;2022-12-10T09:58:50;33.15;;;8.25;;
54947;SDS011;41113;41.882;12.530;2022-12-10T10:01:18;34.65;;;8.48;;
54947;SDS011;41113;41.882;12.530;2022-12-10T10:03:48;25.63;;;6.88;;
54947;SDS011;41113;41.882;12.530;2022-12-10T10:06:13;32.42;;;7.35;;
54947;SDS011;41113;41.882;12.530;2022-12-10T10:08:41;30.38;;;7.57;;
54947;SDS011;41113;41.882;12.530;2022-12-10T10:11:14;25.20;;;6.53;;
54947;SDS011;41113;41.882;12.530;2022-12-10T10:13:55;32.13;;;7.18;;
54947;SDS011;41113;41.882;12.530;2022-12-10T10:16:30;29.80;;;7.28;;
54947;SDS011;41113;41.882;12.530;2022-12-10T10:19:01;37.22;;;8.13;;
54947;SDS011;41113;41.882;12.530;2022-12-10T10:21:30;39.10;;;9.00;;
54947;SDS011;41113;41.882;12.530;2022-12-10T10:24:05;32.15;;;6.35;;
54947;SDS011;41113;41.882;12.530;2022-12-10T10:26:36;29.33;;;7.70;;
54947;SDS011;41113;41.882;12.530;2022-12-10T10:29:05;28.75;;;6.65;;
54947;SDS011;41113;41.882;12.530;2022-12-10T10:31:34;27.15;;;6.63;;
54947;SDS011;41113;41.882;12.530;2022-12-10T10:34:04;32.63;;;7.68;;
54947;SDS011;41113;41.882;12.530;2022-12-10T10:41:58;23.17;;;5.47;;
54947;SDS011;41113;41.882;12.530;2022-12-10T10:44:26;27.08;;;6.28;;
54947;SDS011;41113;41.882;12.530;2022-12-10T10:46:54;23.65;;;5.18;;
54947;SDS011;41113;41.882;12.530;2022-12-10T10:51:49;20.98;;;5.45;;
54947;SDS011;41113;41.882;12.530;2022-12-10T10:54:37;28.58;;;5.50;;
54947;SDS011;41113;41.882;12.530;2022-12-10T10:57:05;20.45;;;5.18;;
54947;SDS011;41113;41.882;12.530;2022-12-10T10:59:37;25.67;;;5.18;;
54947;SDS011;41113;41.882;12.530;2022-12-10T11:04:52;30.58;;;6.53;;
54947;SDS011;41113;41.882;12.530;2022-12-10T11:07:21;21.25;;;5.30;;
54947;SDS011;41113;41.882;12.530;2022-12-10T11:09:58;23.58;;;6.18;;
54947;SDS011;41113;41.882;12.530;2022-12-10T11:14:59;24.85;;;7.65;;
54947;SDS011;41113;41.882;12.530;2022-12-10T11:17:25;22.70;;;6.07;;
54947;SDS011;41113;41.882;12.530;2022-12-10T11:19:56;24.08;;;6.43;;
54947;SDS011;41113;41.882;12.530;2022-12-10T11:22:31;26.75;;;6.18;;
54947;SDS011;41113;41.882;12.530;2022-12-10T11:24:58;29.52;;;7.10;;
54947;SDS011;41113;41.882;12.530;2022-12-10T11:38:32;42.50;;;8.13;;
54947;SDS011;41113;41.882;12.530;2022-12-10T11:41:28;40.63;;;8.95;;
54947;SDS011;41113;41.882;12.530;2022-12-10T11:49:54;46.50;;;9.05;;
54947;SDS011;41113;41.882;12.530;2022-12-10T11:55:27;40.33;;;7.85;;
54947;SDS011;41113;41.882;12.530;2022-12-10T12:03:32;38.03;;;8.43;;
54947;SDS011;41113;41.882;12.530;2022-12-10T12:14:46;41.17;;;9.07;;
54947;SDS011;41113;41.882;12.530;2022-12-10T12:17:30;41.30;;;10.05;;
54947;SDS011;41113;41.882;12.530;2022-12-10T12:23:01;38.40;;;8.82;;
54947;SDS011;41113;41.882;12.530;2022-12-10T12:25:39;36.92;;;7.65;;
54947;SDS011;41113;41.882;12.530;2022-12-10T12:31:13;38.72;;;8.85;;
54947;SDS011;41113;41.882;12.530;2022-12-10T12:36:29;36.92;;;8.20;;
54947;SDS011;41113;41.882;12.530;2022-12-10T12:39:05;30.92;;;7.07;;
54947;SDS011;41113;41.882;12.530;2022-12-10T12:41:47;22.33;;;5.57;;
54947;SDS011;41113;41.882;12.530;2022-12-10T12:44:36;14.75;;;3.65;;
54947;SDS011;41113;41.882;12.530;2022-12-10T12:49:46;13.32;;;2.83;;
54947;SDS011;41113;41.882;12.530;2022-12-10T12:52:32;11.10;;;2.60;;
54947;SDS011;41113;41.882;12.530;2022-12-10T12:55:11;12.07;;;2.25;;
54947;SDS011;41113;41.882;12.530;2022-12-10T12:57:53;9.02;;;2.28;;
54947;SDS011;41113;41.882;12.530;2022-12-10T13:00:26;10.70;;;2.35;;
54947;SDS011;41113;41.882;12.530;2022-12-10T13:05:44;6.22;;;1.60;;
54947;SDS011;41113;41.882;12.530;2022-12-10T13:15:53;7.45;;;1.30;;
54947;SDS011;41113;41.882;12.530;2022-12-10T13:18:20;7.95;;;1.40;;
54947;SDS011;41113;41.882;12.530;2022-12-10T13:20:48;6.82;;;1.45;;
54947;SDS011;41113;41.882;12.530;2022-12-10T13:23:48;8.32;;;1.80;;
54947;SDS011;41113;41.882;12.530;2022-12-10T13:26:22;8.00;;;1.48;;
54947;SDS011;41113;41.882;12.530;2022-12-10T13:28:52;4.65;;;1.42;;
54947;SDS011;41113;41.882;12.530;2022-12-10T13:31:20;7.53;;;1.50;;
54947;SDS011;41113;41.882;12.530;2022-12-10T13:34:21;8.60;;;1.47;;
54947;SDS011;41113;41.882;12.530;2022-12-10T13:45:00;9.82;;;2.20;;
54947;SDS011;41113;41.882;12.530;2022-12-10T13:49:59;8.85;;;2.10;;
54947;SDS011;41113;41.882;12.530;2022-12-10T13:52:35;8.93;;;2.05;;
54947;SDS011;41113;41.882;12.530;2022-12-10T13:55:32;4.93;;;1.50;;
54947;SDS011;41113;41.882;12.530;2022-12-10T13:58:09;11.03;;;2.50;;
54947;SDS011;41113;41.882;12.530;2022-12-10T14:09:18;8.05;;;1.60;;
54947;SDS011;41113;41.882;12.530;2022-12-10T14:11:51;7.82;;;1.83;;
54947;SDS011;41113;41.882;12.530;2022-12-10T14:14:43;9.13;;;2.47;;
54947;SDS011;41113;41.882;12.530;2022-12-10T14:17:13;11.93;;;2.42;;
54947;SDS011;41113;41.882;12.530;2022-12-10T14:19:43;12.43;;;1.92;;
54947;SDS011;41113;41.882;12.530;2022-12-10T14:22:23;13.43;;;3.13;;
54947;SDS011;41113;41.882;12.530;2022-12-10T14:24:58;12.00;;;3.10;;
54947;SDS011;41113;41.882;12.530;2022-12-10T14:27:25;15.07;;;2.95;;
54947;SDS011;41113;41.882;12.530;2022-12-10T14:29:53;10.15;;;2.40;;
54947;SDS011;41113;41.882;12.530;2022-12-10T14:32:34;9.98;;;2.50;;
54947;SDS011;41113;41.882;12.530;2022-12-10T14:35:01;14.30;;;2.92;;
54947;SDS011;41113;41.882;12.530;2022-12-10T14:37:30;10.88;;;2.20;;
54947;SDS011;41113;41.882;12.530;2022-12-10T14:39:58;15.43;;;2.92;;
54947;SDS011;41113;41.882;12.530;2022-12-10T14:42:24;14.48;;;3.55;;
54947;SDS011;41113;41.882;12.530;2022-12-10T14:44:57;9.85;;;2.38;;
54947;SDS011;41113;41.882;12.530;2022-12-10T14:47:37;11.05;;;2.92;;
54947;SDS011;41113;41.882;12.530;2022-12-10T14:50:04;10.55;;;2.92;;
54947;SDS011;41113;41.882;12.530;2022-12-10T14:52:39;8.70;;;1.95;;
54947;SDS011;41113;41.882;12.530;2022-12-10T14:55:11;11.93;;;2.40;;
54947;SDS011;41113;41.882;12.530;2022-12-10T14:57:39;11.75;;;2.85;;
54947;SDS011;41113;41.882;12.530;2022-12-10T15:00:24;10.32;;;2.30;;
54947;SDS011;41113;41.882;12.530;2022-12-10T15:02:59;13.30;;;2.40;;
54947;SDS011;41113;41.882;12.530;2022-12-10T15:05:27;8.43;;;2.05;;
54947;SDS011;41113;41.882;12.530;2022-12-10T15:10:25;11.48;;;2.85;;
54947;SDS011;41113;41.882;12.530;2022-12-10T15:12:54;10.40;;;2.35;;
54947;SDS011;41113;41.882;12.530;2022-12-10T15:15:28;8.98;;;2.13;;
54947;SDS011;41113;41.882;12.530;2022-12-10T15:18:00;8.02;;;1.85;;
54947;SDS011;41113;41.882;12.530;2022-12-10T15:28:39;8.43;;;1.70;;
54947;SDS011;41113;41.882;12.530;2022-12-10T15:31:48;7.40;;;1.73;;
54947;SDS011;41113;41.882;12.530;2022-12-10T15:38:57;8.45;;;1.63;;
54947;SDS011;41113;41.882;12.530;2022-12-10T15:44:19;6.07;;;1.50;;
54947;SDS011;41113;41.882;12.530;2022-12-10T15:46:51;8.05;;;1.70;;
54947;SDS011;41113;41.882;12.530;2022-12-10T15:49:22;6.30;;;1.77;;
54947;SDS011;41113;41.882;12.530;2022-12-10T15:51:47;5.93;;;1.67;;
54947;SDS011;41113;41.882;12.530;2022-12-10T15:54:31;9.50;;;1.55;;
54947;SDS011;41113;41.882;12.530;2022-12-10T15:56:57;6.32;;;1.85;;
54947;SDS011;41113;41.882;12.530;2022-12-10T15:59:22;6.25;;;1.63;;
54947;SDS011;41113;41.882;12.530;2022-12-10T16:01:48;5.00;;;1.50;;
54947;SDS011;41113;41.882;12.530;2022-12-10T16:04:17;9.23;;;1.80;;
54947;SDS011;41113;41.882;12.530;2022-12-10T16:06:43;8.52;;;2.30;;
54947;SDS011;41113;41.882;12.530;2022-12-10T16:09:08;8.57;;;1.90;;
54947;SDS011;41113;41.882;12.530;2022-12-10T16:11:34;7.18;;;1.58;;
54947;SDS011;41113;41.882;12.530;2022-12-10T16:14:00;6.45;;;1.50;;
54947;SDS011;41113;41.882;12.530;2022-12-10T16:16:25;3.88;;;1.10;;
54947;SDS011;41113;41.882;12.530;2022-12-10T16:18:51;5.45;;;1.42;;
54947;SDS011;41113;41.882;12.530;2022-12-10T16:21:17;3.40;;;1.23;;
54947;SDS011;41113;41.882;12.530;2022-12-10T16:23:42;5.18;;;1.50;;
54947;SDS011;41113;41.882;12.530;2022-12-10T16:26:29;4.25;;;1.30;;
54947;SDS011;41113;41.882;12.530;2022-12-10T16:28:53;4.82;;;1.52;;
54947;SDS011;41113;41.882;12.530;2022-12-10T16:31:20;6.10;;;1.58;;
54947;SDS011;41113;41.882;12.530;2022-12-10T16:33:46;3.35;;;1.25;;
54947;SDS011;41113;41.882;12.530;2022-12-10T16:36:13;5.68;;;1.60;;
54947;SDS011;41113;41.882;12.530;2022-12-10T16:38:39;5.80;;;1.70;;
54947;SDS011;41113;41.882;12.530;2022-12-10T16:41:14;6.70;;;1.73;;
54947;SDS011;41113;41.882;12.530;2022-12-10T16:43:46;4.20;;;1.33;;
54947;SDS011;41113;41.882;12.530;2022-12-10T16:46:11;6.05;;;1.63;;
54947;SDS011;41113;41.882;12.530;2022-12-10T16:48:37;5.15;;;1.63;;
54947;SDS011;41113;41.882;12.530;2022-12-10T16:51:03;7.35;;;1.70;;
54947;SDS011;41113;41.882;12.530;2022-12-10T16:53:37;6.72;;;1.88;;